createdAt,value
2022-08-24T00:02:28.672Z,99693.59
2022-08-24T00:05:15.138Z,99701.31
2022-08-24T00:08:02.770Z,99707.38
2022-08-24T00:10:49.475Z,99705.41
2022-08-24T00:13:36.716Z,99699.50
2022-08-24T00:16:26.858Z,99702.03
2022-08-24T00:19:13.201Z,99711.81
2022-08-24T00:22:00.361Z,99706.00
2022-08-24T00:24:46.714Z,99699.22
2022-08-24T00:27:33.123Z,99696.19
2022-08-24T00:30:20.904Z,99693.75
2022-08-24T00:33:08.330Z,99696.78
2022-08-24T00:35:54.423Z,99698.16
2022-08-24T00:38:40.767Z,99698.88
2022-08-24T00:41:28.533Z,99697.09
2022-08-24T00:44:16.600Z,99693.31
2022-08-24T00:47:06.959Z,99697.44
2022-08-24T00:50:00.131Z,99698.94
2022-08-24T00:52:50.790Z,99709.94
2022-08-24T00:55:49.345Z,99707.88
2022-08-24T00:58:39.737Z,99700.12
2022-08-24T01:01:26.492Z,99708.00
2022-08-24T01:04:18.513Z,99688.13
2022-08-24T01:07:05.083Z,99678.50
2022-08-24T01:10:00.201Z,99676.06
2022-08-24T01:12:59.523Z,99676.97
2022-08-24T01:15:49.108Z,99688.06
2022-08-24T01:18:51.738Z,99688.66
2022-08-24T01:21:44.361Z,99685.22
2022-08-24T01:24:31.101Z,99681.34
2022-08-24T01:27:19.229Z,99694.47
2022-08-24T01:30:13.576Z,99694.69
2022-08-24T01:33:02.574Z,99696.84
2022-08-24T01:35:49.082Z,99704.97
2022-08-24T01:38:35.756Z,99699.09
2022-08-24T01:41:24.726Z,99704.44
2022-08-24T01:44:15.226Z,99709.75
2022-08-24T01:47:02.897Z,99708.44
2022-08-24T01:49:53.760Z,99715.94
2022-08-24T01:53:03.972Z,99717.19
2022-08-24T01:55:48.900Z,99730.59
2022-08-24T01:58:35.836Z,99715.66
2022-08-24T02:01:22.172Z,99720.50
2022-08-24T02:04:09.691Z,99730.59
2022-08-24T02:06:56.010Z,99726.44
2022-08-24T02:09:42.260Z,99727.34
2022-08-24T02:12:28.470Z,99720.94
2022-08-24T02:15:14.974Z,99720.53
2022-08-24T02:18:01.287Z,99722.34
2022-08-24T02:20:47.955Z,99716.59
2022-08-24T02:23:35.428Z,99722.56
2022-08-24T02:26:21.760Z,99731.38
2022-08-24T02:29:08.672Z,99722.44
2022-08-24T02:31:55.168Z,99725.78
2022-08-24T02:34:41.417Z,99727.22
2022-08-24T02:37:27.883Z,99728.19
2022-08-24T02:40:14.521Z,99725.34
2022-08-24T02:43:01.300Z,99729.41
2022-08-24T02:45:50.354Z,99729.47
2022-08-24T02:48:37.141Z,99724.94
2022-08-24T02:51:26.433Z,99728.84
2022-08-24T02:54:19.563Z,99735.97
2022-08-24T02:57:05.927Z,99732.94
2022-08-24T02:59:52.299Z,99735.19
2022-08-24T03:02:40.003Z,99733.16
2022-08-24T03:05:26.655Z,99733.09
2022-08-24T03:08:12.862Z,99735.41
2022-08-24T03:11:00.476Z,99728.00
2022-08-24T03:13:46.834Z,99730.62
2022-08-24T03:16:33.461Z,99724.44
2022-08-24T03:19:20.309Z,99720.06
2022-08-24T03:22:06.801Z,99730.62
2022-08-24T03:24:53.243Z,99730.22
2022-08-24T03:27:41.067Z,99728.97
2022-08-24T03:30:27.983Z,99728.66
2022-08-24T03:33:14.649Z,99732.16
2022-08-24T03:36:00.966Z,99727.28
2022-08-24T03:38:47.415Z,99732.56
2022-08-24T03:41:35.382Z,99729.31
2022-08-24T03:44:25.801Z,99723.75
2022-08-24T03:47:13.352Z,99720.88
2022-08-24T03:49:59.837Z,99723.78
2022-08-24T03:52:47.306Z,99721.53
2022-08-24T03:55:33.760Z,99726.19
2022-08-24T03:58:20.124Z,99727.59
2022-08-24T04:01:06.520Z,99725.09
2022-08-24T04:03:55.624Z,99723.91
2022-08-24T04:06:44.596Z,99730.72
2022-08-24T04:09:31.534Z,99731.75
2022-08-24T04:12:17.662Z,99730.25
2022-08-24T04:15:05.826Z,99730.81
2022-08-24T04:17:53.028Z,99732.03
2022-08-24T04:20:43.227Z,99737.41
2022-08-24T04:23:46.600Z,99732.19
2022-08-24T04:26:44.866Z,99728.03
2022-08-24T04:29:35.879Z,99721.72
2022-08-24T04:32:22.238Z,99727.03
2022-08-24T04:35:09.440Z,99724.25
2022-08-24T04:37:56.167Z,99720.66
2022-08-24T04:40:44.548Z,99727.56
2022-08-24T04:43:34.136Z,99727.41
2022-08-24T04:46:20.604Z,99722.81
2022-08-24T04:49:07.077Z,99733.13
2022-08-24T04:51:53.976Z,99726.56
2022-08-24T04:54:41.405Z,99727.00
2022-08-24T04:57:27.824Z,99728.50
2022-08-24T05:00:14.994Z,99741.81
2022-08-24T05:03:01.710Z,99739.59
2022-08-24T05:05:49.503Z,99739.41
2022-08-24T05:08:35.794Z,99731.69
2022-08-24T05:11:22.874Z,99726.41
2022-08-24T05:14:11.242Z,99719.53
2022-08-24T05:16:59.072Z,99724.59
2022-08-24T05:19:45.601Z,99725.09
2022-08-24T05:22:31.915Z,99725.34
2022-08-24T05:25:18.966Z,99735.34
2022-08-24T05:28:06.066Z,99729.94
2022-08-24T05:30:52.159Z,99731.84
2022-08-24T05:33:39.041Z,99735.06
2022-08-24T05:36:28.997Z,99737.00
2022-08-24T05:39:15.821Z,99733.97
2022-08-24T05:42:02.846Z,99736.00
2022-08-24T05:44:50.838Z,99738.56
2022-08-24T05:47:37.388Z,99736.97
2022-08-24T05:50:24.673Z,99733.50
2022-08-24T05:53:13.349Z,99733.47
2022-08-24T05:56:05.024Z,99735.94
2022-08-24T05:58:51.160Z,99739.12
2022-08-24T06:01:42.179Z,99731.03
2022-08-24T06:04:31.849Z,99739.16
2022-08-24T06:07:18.546Z,99727.53
2022-08-24T06:10:32.787Z,99729.50
2022-08-24T06:13:12.214Z,99731.41
2022-08-24T06:16:21.963Z,99723.22
2022-08-24T06:19:10.120Z,99727.09
2022-08-24T06:21:56.617Z,99733.78
2022-08-24T06:25:01.770Z,99731.91
2022-08-24T06:27:48.261Z,99736.47
2022-08-24T06:30:35.005Z,99736.16
2022-08-24T06:33:22.115Z,99733.97
2022-08-24T06:36:08.858Z,99743.16
2022-08-24T06:38:55.292Z,99744.44
2022-08-24T06:41:42.443Z,99746.84
2022-08-24T06:44:29.173Z,99753.19
2022-08-24T06:47:16.988Z,99747.00
2022-08-24T06:50:03.811Z,99753.03
2022-08-24T06:52:50.256Z,99752.72
2022-08-24T06:55:36.937Z,99755.41
2022-08-24T06:58:28.728Z,99751.56
2022-08-24T07:01:20.586Z,99752.09
2022-08-24T07:04:07.150Z,99748.75
2022-08-24T07:06:56.367Z,99752.97
2022-08-24T07:09:42.865Z,99760.13
2022-08-24T07:12:30.175Z,99750.84
2022-08-24T07:15:16.737Z,99763.81
2022-08-24T07:18:09.936Z,99774.28
2022-08-24T07:21:01.242Z,99775.78
2022-08-24T07:23:55.233Z,99782.72
2022-08-24T07:26:41.666Z,99780.09
2022-08-24T07:29:47.211Z,99784.94
2022-08-24T07:32:35.251Z,99781.81
2022-08-24T07:35:22.186Z,99784.78
2022-08-24T07:38:08.791Z,99786.22
2022-08-24T07:41:20.050Z,99793.47
2022-08-24T07:44:01.479Z,99790.19
2022-08-24T07:46:49.493Z,99795.78
2022-08-24T07:49:39.569Z,99795.25
2022-08-24T07:52:26.218Z,99797.66
2022-08-24T07:55:13.562Z,99788.44
2022-08-24T07:58:00.880Z,99792.25
2022-08-24T08:00:48.433Z,99797.50
2022-08-24T08:03:34.729Z,99796.00
2022-08-24T08:06:21.065Z,99796.06
2022-08-24T08:09:08.098Z,99801.78
2022-08-24T08:11:54.378Z,99801.06
2022-08-24T08:14:40.716Z,99797.44
2022-08-24T08:17:27.558Z,99797.88
2022-08-24T08:20:14.545Z,99810.47
2022-08-24T08:23:25.271Z,99803.53
2022-08-24T08:26:17.542Z,99799.69
2022-08-24T08:29:04.381Z,99800.81
2022-08-24T08:31:52.320Z,99800.53
2022-08-24T08:34:39.338Z,99795.75
2022-08-24T08:37:26.337Z,99798.75
2022-08-24T08:40:23.748Z,99803.25
2022-08-24T08:43:18.069Z,99809.94
2022-08-24T08:46:24.357Z,99814.22
2022-08-24T08:49:47.292Z,99816.19
2022-08-24T08:52:52.236Z,99817.41
2022-08-24T08:55:57.427Z,99812.53
2022-08-24T08:59:01.659Z,99814.34
2022-08-24T09:02:15.235Z,99816.34
2022-08-24T09:05:07.400Z,99812.56
2022-08-24T09:08:15.253Z,99817.87
2022-08-24T09:11:20.627Z,99816.75
2022-08-24T09:14:42.483Z,99819.78
2022-08-24T09:17:56.576Z,99813.34
2022-08-24T09:21:14.569Z,99816.94
2022-08-24T09:24:40.894Z,99816.13
2022-08-24T09:27:52.259Z,99810.56
2022-08-24T09:31:05.589Z,99804.22
2022-08-24T09:34:20.372Z,99808.81
2022-08-24T09:37:09.489Z,99799.72
2022-08-24T09:40:23.967Z,99803.44
2022-08-24T09:43:36.933Z,99801.38
2022-08-24T09:46:26.546Z,99799.69
2022-08-24T09:49:27.965Z,99801.22
2022-08-24T09:52:44.429Z,99797.13
2022-08-24T09:56:05.022Z,99786.75
2022-08-24T09:59:04.438Z,99784.59
2022-08-24T10:02:09.650Z,99778.00
2022-08-24T10:05:21.129Z,99781.22
2022-08-24T10:08:25.388Z,99767.81
2022-08-24T10:11:24.046Z,99785.47
2022-08-24T10:14:19.350Z,99772.06
2022-08-24T10:17:23.854Z,99776.09
2022-08-24T10:20:16.393Z,99770.91
2022-08-24T10:23:30.346Z,99772.25
2022-08-24T10:26:26.456Z,99777.69
2022-08-24T10:30:08.683Z,99776.66
2022-08-24T10:33:20.049Z,99781.13
2022-08-24T10:36:41.588Z,99782.78
2022-08-24T10:40:09.615Z,99792.12
2022-08-24T10:43:34.363Z,99783.41
2022-08-24T10:46:39.115Z,99788.78
2022-08-24T10:49:34.839Z,99791.38
2022-08-24T10:52:40.111Z,99795.06
2022-08-24T10:55:30.406Z,99787.53
2022-08-24T10:58:51.893Z,99785.47
2022-08-24T11:01:39.368Z,99787.09
2022-08-24T11:04:29.260Z,99794.38
2022-08-24T11:07:19.136Z,99793.06
2022-08-24T11:10:08.912Z,99797.44
2022-08-24T11:12:56.029Z,99798.28
2022-08-24T11:15:55.203Z,99798.00
2022-08-24T11:18:49.466Z,99792.47
2022-08-24T11:21:46.929Z,99791.53
2022-08-24T11:24:43.402Z,99793.97
2022-08-24T11:27:34.928Z,99797.19
2022-08-24T11:30:21.475Z,99800.00
2022-08-24T11:33:27.536Z,99794.09
2022-08-24T11:36:21.457Z,99792.53
2022-08-24T11:39:25.777Z,99805.19
2022-08-24T11:42:29.205Z,99803.94
2022-08-24T11:45:31.560Z,99812.69
2022-08-24T11:48:46.633Z,99802.69
2022-08-24T11:51:51.335Z,99797.66
2022-08-24T11:55:05.323Z,99808.44
2022-08-24T11:58:00.380Z,99810.81
2022-08-24T12:01:02.317Z,99811.25
2022-08-24T12:04:12.173Z,99813.66
2022-08-24T12:07:39.491Z,99815.25
2022-08-24T12:10:55.915Z,99820.09
2022-08-24T12:14:10.485Z,99834.13
2022-08-24T12:17:02.734Z,99831.06
2022-08-24T12:19:53.229Z,99841.28
2022-08-24T12:22:40.190Z,99847.94
2022-08-24T12:25:50.702Z,99839.66
2022-08-24T12:28:41.535Z,99845.72
2022-08-24T12:31:47.324Z,99844.34
2022-08-24T12:34:36.948Z,99852.53
2022-08-24T12:37:36.773Z,99844.19
2022-08-24T12:40:33.568Z,99847.56
2022-08-24T12:43:40.321Z,99840.41
2022-08-24T12:46:27.330Z,99849.97
2022-08-24T12:49:25.958Z,99851.78
2022-08-24T12:52:50.546Z,99853.41
2022-08-24T12:55:58.231Z,99851.03
2022-08-24T12:59:20.087Z,99841.97
2022-08-24T13:02:06.225Z,99837.44
2022-08-24T13:04:52.946Z,99834.91
2022-08-24T13:07:43.883Z,99825.19
2022-08-24T13:10:38.969Z,99818.97
2022-08-24T13:13:42.460Z,99821.06
2022-08-24T13:16:57.065Z,99819.16
2022-08-24T13:19:46.105Z,99822.31
2022-08-24T13:23:07.088Z,99827.19
2022-08-24T13:25:55.852Z,99820.63
2022-08-24T13:28:50.265Z,99816.41
2022-08-24T13:31:49.193Z,99804.03
2022-08-24T13:34:38.057Z,99819.69
2022-08-24T13:37:27.131Z,99813.62
2022-08-24T13:40:19.017Z,99816.84
2022-08-24T13:43:20.293Z,99822.44
2022-08-24T13:46:44.525Z,99826.03
2022-08-24T13:49:36.531Z,99815.56
2022-08-24T13:52:32.442Z,99824.44
2022-08-24T13:55:28.917Z,99833.59
2022-08-24T13:58:34.668Z,99836.75
2022-08-24T14:01:44.638Z,99836.34
2022-08-24T14:04:39.863Z,99830.47
2022-08-24T14:07:33.944Z,99836.28
2022-08-24T14:10:23.634Z,99834.09
2022-08-24T14:13:26.679Z,99823.41
2022-08-24T14:17:19.348Z,99826.59
2022-08-24T14:20:27.798Z,99825.19
2022-08-24T14:23:46.161Z,99833.41
2022-08-24T14:26:38.845Z,99838.94
2022-08-24T14:29:28.247Z,99833.19
2022-08-24T14:32:34.953Z,99833.25
2022-08-24T14:35:41.495Z,99830.63
2022-08-24T14:38:52.897Z,99832.38
2022-08-24T14:42:06.118Z,99827.16
2022-08-24T14:44:55.881Z,99837.09
2022-08-24T14:48:00.883Z,99841.13
2022-08-24T14:51:09.074Z,99834.47
2022-08-24T14:54:03.753Z,99833.81
2022-08-24T14:57:13.182Z,99831.63
2022-08-24T15:00:17.105Z,99823.72
2022-08-24T15:03:31.698Z,99813.56
2022-08-24T15:06:28.095Z,99814.31
2022-08-24T15:09:26.126Z,99806.28
2022-08-24T15:12:25.751Z,99811.63
2022-08-24T15:15:33.969Z,99812.84
2022-08-24T15:18:37.048Z,99818.84
2022-08-24T15:21:29.313Z,99816.44
2022-08-24T15:24:34.236Z,99827.63
2022-08-24T15:27:55.870Z,99830.88
2022-08-24T15:31:10.996Z,99832.44
2022-08-24T15:34:03.226Z,99826.44
2022-08-24T15:36:59.667Z,99817.63
2022-08-24T15:39:46.071Z,99828.03
2022-08-24T15:42:35.435Z,99824.03
2022-08-24T15:45:22.162Z,99823.25
2022-08-24T15:48:12.317Z,99816.00
2022-08-24T15:50:59.441Z,99818.97
2022-08-24T15:53:45.777Z,99809.66
2022-08-24T15:56:40.827Z,99812.84
2022-08-24T15:59:32.436Z,99822.44
2022-08-24T16:02:29.881Z,99825.59
2022-08-24T16:05:21.515Z,99825.53
2022-08-24T16:08:10.584Z,99823.16
2022-08-24T16:10:57.367Z,99822.41
2022-08-24T16:13:43.339Z,99813.59
2022-08-24T16:16:38.909Z,99812.47
2022-08-24T16:19:32.940Z,99810.78
2022-08-24T16:22:29.990Z,99806.34
2022-08-24T16:25:18.221Z,99805.19
2022-08-24T16:28:22.070Z,99803.59
2022-08-24T16:31:08.489Z,99797.66
2022-08-24T16:34:09.982Z,99794.06
2022-08-24T16:36:56.572Z,99794.87
2022-08-24T16:39:43.460Z,99792.84
2022-08-24T16:42:30.764Z,99792.84
2022-08-24T16:45:20.277Z,99786.84
2022-08-24T16:48:06.352Z,99784.06
2022-08-24T16:50:52.653Z,99783.25
2022-08-24T16:53:39.386Z,99790.03
2022-08-24T16:56:26.009Z,99804.88
2022-08-24T16:59:17.560Z,99803.25
2022-08-24T17:02:04.358Z,99805.91
2022-08-24T17:04:52.125Z,99805.63
2022-08-24T17:07:38.978Z,99811.22
2022-08-24T17:10:27.566Z,99812.03
2022-08-24T17:13:33.071Z,99807.19
2022-08-24T17:16:21.675Z,99822.38
2022-08-24T17:19:12.052Z,99824.72
2022-08-24T17:21:58.503Z,99821.78
2022-08-24T17:24:45.560Z,99830.28
2022-08-24T17:27:35.181Z,99823.53
2022-08-24T17:30:25.996Z,99827.69
2022-08-24T17:33:16.556Z,99830.12
2022-08-24T17:36:05.370Z,99836.78
2022-08-24T17:38:55.870Z,99841.56
2022-08-24T17:41:42.482Z,99841.50
2022-08-24T17:44:33.424Z,99842.78
2022-08-24T17:47:19.817Z,99847.13
2022-08-24T17:50:10.182Z,99847.81
2022-08-24T17:53:00.251Z,99844.38
2022-08-24T17:55:47.403Z,99854.00
2022-08-24T17:58:54.142Z,99853.56
2022-08-24T18:01:40.247Z,99859.19
2022-08-24T18:04:29.858Z,99861.16
2022-08-24T18:07:30.611Z,99863.59
2022-08-24T18:10:32.248Z,99862.00
2022-08-24T18:13:18.698Z,99864.84
2022-08-24T18:16:05.258Z,99865.25
2022-08-24T18:18:52.672Z,99868.88
2022-08-24T18:21:42.101Z,99870.47
2022-08-24T18:24:32.468Z,99872.88
2022-08-24T18:27:29.292Z,99871.28
2022-08-24T18:30:22.492Z,99872.81
2022-08-24T18:33:12.314Z,99881.66
2022-08-24T18:35:59.014Z,99889.25
2022-08-24T18:38:47.550Z,99887.31
2022-08-24T18:41:38.473Z,99888.09
2022-08-24T18:44:29.536Z,99889.28
2022-08-24T18:47:17.997Z,99876.88
2022-08-24T18:50:07.019Z,99887.25
2022-08-24T18:52:55.856Z,99883.19
2022-08-24T18:55:46.163Z,99892.72
2022-08-24T18:58:33.783Z,99892.97
2022-08-24T19:01:22.473Z,99895.28
2022-08-24T19:04:13.981Z,99896.47
2022-08-24T19:07:01.193Z,99891.09
2022-08-24T19:09:48.355Z,99893.53
2022-08-24T19:12:39.882Z,99896.38
2022-08-24T19:15:39.069Z,99904.34
2022-08-24T19:18:26.646Z,99911.88
2022-08-24T19:21:13.237Z,99905.53
2022-08-24T19:24:01.308Z,99905.09
2022-08-24T19:26:47.848Z,99899.12
2022-08-24T19:32:43.944Z,99900.78
2022-08-24T19:35:34.866Z,99902.44
2022-08-24T19:38:25.537Z,99908.72
2022-08-24T19:41:17.574Z,99903.94
2022-08-24T19:44:27.716Z,99901.59
2022-08-24T19:47:14.858Z,99900.38
2022-08-24T19:50:02.309Z,99911.09
2022-08-24T19:52:48.773Z,99904.59
2022-08-24T19:55:35.262Z,99913.81
2022-08-24T19:58:45.046Z,99913.25
2022-08-24T20:01:34.810Z,99921.62
2022-08-24T20:04:24.925Z,99910.63
2022-08-24T20:07:14.820Z,99921.91
2022-08-24T20:10:01.260Z,99912.38
2022-08-24T20:13:00.354Z,99917.56
2022-08-24T20:15:46.772Z,99907.94
2022-08-24T20:18:35.354Z,99912.59
2022-08-24T20:21:27.081Z,99910.03
2022-08-24T20:24:16.555Z,99907.94
2022-08-24T20:27:03.284Z,99906.78
2022-08-24T20:29:49.886Z,99907.56
2022-08-24T20:32:36.467Z,99913.41
2022-08-24T20:35:29.310Z,99918.03
2022-08-24T20:38:18.594Z,99914.91
2022-08-24T20:41:04.639Z,99908.38
2022-08-24T20:43:51.058Z,99917.25
2022-08-24T20:46:38.563Z,99910.72
2022-08-24T20:49:26.767Z,99915.50
2022-08-24T20:52:13.093Z,99909.00
2022-08-24T20:54:59.742Z,99921.19
2022-08-24T20:57:52.063Z,99918.41
2022-08-24T21:00:41.011Z,99924.34
2022-08-24T21:03:27.293Z,99926.59
2022-08-24T21:06:16.936Z,99927.56
2022-08-24T21:09:05.360Z,99928.25
2022-08-24T21:11:52.123Z,99924.91
2022-08-24T21:14:38.193Z,99925.25
2022-08-24T21:17:25.502Z,99922.78
2022-08-24T21:20:13.557Z,99925.87
2022-08-24T21:23:00.064Z,99928.72
2022-08-24T21:25:47.141Z,99923.22
2022-08-24T21:28:36.978Z,99930.69
2022-08-24T21:31:23.209Z,99927.31
2022-08-24T21:34:28.167Z,99918.56
2022-08-24T21:37:17.887Z,99938.97
2022-08-24T21:40:06.856Z,99922.50
2022-08-24T21:42:53.221Z,99926.53
2022-08-24T21:45:41.445Z,99927.38
2022-08-24T21:48:27.611Z,99923.13
2022-08-24T21:51:14.092Z,99922.34
2022-08-24T21:54:00.416Z,99915.91
2022-08-24T21:56:46.763Z,99925.34
2022-08-24T21:59:34.178Z,99913.59
2022-08-24T22:02:20.769Z,99913.00
2022-08-24T22:05:07.674Z,99930.75
2022-08-24T22:07:53.822Z,99927.50
2022-08-24T22:10:40.058Z,99928.25
2022-08-24T22:13:27.205Z,99928.53
2022-08-24T22:16:14.147Z,99910.03
2022-08-24T22:19:00.525Z,99914.28
2022-08-24T22:21:48.129Z,99928.28
2022-08-24T22:24:36.322Z,99920.50
2022-08-24T22:27:24.959Z,99926.13
2022-08-24T22:30:17.124Z,99924.50
2022-08-24T22:33:05.177Z,99921.94
2022-08-24T22:35:52.128Z,99923.66
2022-08-24T22:38:39.346Z,99920.00
2022-08-24T22:41:27.302Z,99927.31
2022-08-24T22:44:20.278Z,99922.41
2022-08-24T22:47:10.915Z,99921.47
2022-08-24T22:50:01.785Z,99921.72
2022-08-24T22:52:48.054Z,99919.47
2022-08-24T22:55:34.527Z,99909.31
2022-08-24T22:58:20.866Z,99908.75
2022-08-24T23:01:07.107Z,99898.97
2022-08-24T23:03:55.414Z,99905.69
2022-08-24T23:06:42.116Z,99898.00
2022-08-24T23:09:28.391Z,99900.69
2022-08-24T23:12:22.482Z,99898.75
2022-08-24T23:15:09.254Z,99895.31
2022-08-24T23:17:55.600Z,99895.41
2022-08-24T23:20:41.832Z,99876.44
2022-08-24T23:23:28.186Z,99879.25
2022-08-24T23:26:18.121Z,99887.25
2022-08-24T23:29:06.378Z,99878.63
2022-08-24T23:31:53.921Z,99873.19
2022-08-24T23:34:40.656Z,99866.91
2022-08-24T23:37:27.413Z,99867.00
2022-08-24T23:40:13.689Z,99865.78
2022-08-24T23:42:59.947Z,99867.38
2022-08-24T23:45:46.491Z,99873.41
2022-08-24T23:48:33.133Z,99868.91
2022-08-24T23:51:20.332Z,99868.22
2022-08-24T23:54:07.684Z,99866.34
2022-08-24T23:56:54.421Z,99859.44
2022-08-24T23:59:40.639Z,99860.47
